METAR Data
IDs: Format: Raw Decoded Include TAF

Data at: 2031 UTC 18 Apr 2021

KEVB 181947Z 10007KT 10SM CLR 24/18 A2987
KEVB 181847Z 11005KT 10SM CLR 24/18 A2989
KEVB 181747Z 00000KT 10SM CLR 22/18 A2990
KEVB 181647Z 02007KT 7SM OVC030 21/19 A2996
KEVB 181547Z 01007KT 7SM OVC030 21/19 A2997
KEVB 181447Z 00000KT 10SM OVC012 23/19 A2996
KEVB 181347Z 00000KT 10SM OVC014 23/19 A2992
KEVB 181247Z 00000KT 10SM OVC055 21/19 A2993
KEVB 181147Z 16004KT 10SM BKN022 20/19 A2992
KEVB 181047Z 00000KT 10SM BKN022 19/18 A2990 RMK FIRST
KEVB 180147Z 00000KT 10SM OVC070 21/20 A2988 RMK LAST
KEVB 180047Z 06003KT 7SM SCT041 BKN080 21/20 A2986
KEVB 172347Z 05004KT 10SM CLR 21/19 A2984
KEVB 172247Z 02005KT 10SM SCT007 BKN040 22/20 A2983
KEVB 172147Z 05007KT 10SM SCT007 BKN040 22/20 A2982
KEVB 172047Z 04009KT 7SM BKN007 BKN028 21/20 A2981
KEVB 172030Z 04014KT 7SM BKN008 BKN028 22/20 A2981
KEVB 171947Z 02015G23KT 7SM FEW030 BKN040 24/21 A2982
KEVB 171847Z 27010G20KT 10SM FEW030 BKN048 29/21 A2983
KEVB 171747Z 25010KT 7SM BKN024 27/20 A2983
KEVB 171647Z 25007KT 7SM SCT008 BKN014 22/20 A2986
KEVB 171605Z 24005KT 7SM SCT008 BKN014 22/20 A2988
KEVB 171547Z COR 24005KT 7SM BKN008 22/20 A2988
KEVB 171447Z 00000KT 7SM BKN005 21/20 A2989
KEVB 171347Z 36005KT 2SM RA BR BKN005 20/20 A2989
KEVB 171247Z 31008KT 3SM RABR BKN006 20/19 A2989
KEVB 171147Z 30003KT 5SM BR FEW005 BKN060 20/19 A2986
KEVB 171047Z 23003KT 7SM SCT023 BKN040 20/19 A2982 RMK FIRST